createdAt,value
2023-01-01T00:02:31.771Z,100115.77
2023-01-01T00:05:09.025Z,100117.89
2023-01-01T00:07:39.531Z,100124.08
2023-01-01T00:10:30.209Z,100119.54
2023-01-01T00:13:01.280Z,100115.21
2023-01-01T00:15:31.607Z,100107.23
2023-01-01T00:18:02.545Z,100108.92
2023-01-01T00:20:35.407Z,100102.67
2023-01-01T00:23:06.358Z,100106.07
2023-01-01T00:25:36.577Z,100111.81
2023-01-01T00:28:09.517Z,100112.86
2023-01-01T00:30:41.973Z,100114.98
2023-01-01T00:33:12.133Z,100112.31
2023-01-01T00:35:42.866Z,100110.73
2023-01-01T00:38:13.405Z,100117.73
2023-01-01T00:40:43.926Z,100116.30
2023-01-01T00:43:13.896Z,100121.89
2023-01-01T00:45:47.455Z,100116.59
2023-01-01T00:48:17.569Z,100119.98
2023-01-01T00:50:47.563Z,100113.58
2023-01-01T00:53:17.735Z,100116.70
2023-01-01T00:55:49.812Z,100118.61
2023-01-01T00:58:20.404Z,100125.29
2023-01-01T01:00:51.774Z,100119.88
2023-01-01T01:03:28.905Z,100120.45
2023-01-01T01:06:08.994Z,100114.93
2023-01-01T01:08:41.201Z,100120.86
2023-01-01T01:11:13.935Z,100122.99
2023-01-01T01:13:45.410Z,100120.16
2023-01-01T01:16:17.786Z,100128.02
2023-01-01T01:18:50.795Z,100124.84
2023-01-01T01:21:22.560Z,100121.81
2023-01-01T01:23:53.841Z,100125.26
2023-01-01T01:26:26.449Z,100122.96
2023-01-01T01:28:57.427Z,100126.95
2023-01-01T01:31:29.936Z,100134.73
2023-01-01T01:34:00.252Z,100131.80
2023-01-01T01:36:30.322Z,100128.46
2023-01-01T01:39:00.330Z,100122.88
2023-01-01T01:41:30.554Z,100128.39
2023-01-01T01:44:03.289Z,100131.77
2023-01-01T01:46:39.576Z,100128.61
2023-01-01T01:49:18.124Z,100120.45
2023-01-01T01:51:49.911Z,100121.23
2023-01-01T01:54:24.715Z,100122.55
2023-01-01T01:57:00.319Z,100122.39
2023-01-01T01:59:33.761Z,100129.89
2023-01-01T02:02:05.664Z,100124.67
2023-01-01T02:04:36.783Z,100126.10
2023-01-01T02:07:07.607Z,100121.50
2023-01-01T02:09:37.901Z,100115.64
2023-01-01T02:12:08.318Z,100112.08
2023-01-01T02:14:38.353Z,100110.05
2023-01-01T02:17:15.923Z,100117.56
2023-01-01T02:20:03.765Z,100118.39
2023-01-01T02:23:04.262Z,100116.41
2023-01-01T02:25:48.755Z,100118.11
2023-01-01T02:28:23.266Z,100118.39
2023-01-01T02:30:55.443Z,100119.87
2023-01-01T02:33:27.332Z,100122.27
2023-01-01T02:36:00.299Z,100121.89
2023-01-01T02:38:33.333Z,100122.25
2023-01-01T02:41:06.751Z,100112.73
2023-01-01T02:43:37.737Z,100106.69
2023-01-01T02:46:09.490Z,100101.04
2023-01-01T02:48:44.291Z,100099.23
2023-01-01T02:51:24.184Z,100102.51
2023-01-01T02:54:06.246Z,100106.68
2023-01-01T02:56:42.837Z,100108.98
2023-01-01T02:59:47.142Z,100116.97
2023-01-01T03:02:28.111Z,100120.89
2023-01-01T03:05:09.196Z,100113.27
2023-01-01T03:07:50.516Z,100111.63
2023-01-01T03:10:26.105Z,100115.02
2023-01-01T03:13:03.509Z,100111.78
2023-01-01T03:15:43.417Z,100113.47
2023-01-01T03:18:18.828Z,100108.54
2023-01-01T03:20:53.216Z,100094.45
2023-01-01T03:23:28.207Z,100081.63
2023-01-01T03:26:03.683Z,100082.06
2023-01-01T03:28:38.947Z,100081.66
2023-01-01T03:31:09.362Z,100094.38
2023-01-01T03:33:42.860Z,100102.59
2023-01-01T03:36:18.029Z,100116.46
2023-01-01T03:38:52.721Z,100120.13
2023-01-01T03:41:28.482Z,100127.37
2023-01-01T03:44:07.510Z,100131.86
2023-01-01T03:46:38.726Z,100132.41
2023-01-01T03:49:12.111Z,100142.77
2023-01-01T03:52:15.033Z,100142.66
2023-01-01T03:54:58.536Z,100145.55
2023-01-01T03:57:38.518Z,100143.34
2023-01-01T04:00:16.028Z,100149.36
2023-01-01T04:02:53.341Z,100141.52
2023-01-01T04:05:25.567Z,100139.65
2023-01-01T04:07:56.712Z,100143.77
2023-01-01T04:10:29.258Z,100143.61
2023-01-01T04:13:03.065Z,100142.98
2023-01-01T04:15:35.603Z,100151.30
2023-01-01T04:18:06.070Z,100148.08
2023-01-01T04:20:36.548Z,100151.15
2023-01-01T04:23:06.498Z,100153.23
2023-01-01T04:25:36.668Z,100151.48
2023-01-01T04:28:07.355Z,100160.47
2023-01-01T04:33:07.319Z,100160.02
2023-01-01T04:35:38.540Z,100161.16
2023-01-01T04:38:12.609Z,100158.93
2023-01-01T04:40:42.876Z,100163.54
2023-01-01T04:43:12.940Z,100165.33
2023-01-01T04:45:43.490Z,100166.92
2023-01-01T04:48:14.047Z,100169.60
2023-01-01T04:50:44.343Z,100167.41
2023-01-01T04:53:14.666Z,100161.61
2023-01-01T04:55:44.588Z,100164.62
2023-01-01T04:58:15.196Z,100171.08
2023-01-01T05:00:50.447Z,100174.25
2023-01-01T05:03:20.316Z,100175.43
2023-01-01T05:06:01.525Z,100179.27
2023-01-01T05:08:32.002Z,100179.20
2023-01-01T05:11:02.835Z,100176.63
2023-01-01T05:13:34.598Z,100172.84
2023-01-01T05:16:07.287Z,100168.19
2023-01-01T05:18:38.631Z,100170.70
2023-01-01T05:21:11.310Z,100171.32
2023-01-01T05:23:41.870Z,100170.10
2023-01-01T05:26:14.311Z,100176.89
2023-01-01T05:28:44.631Z,100176.16
2023-01-01T05:31:16.247Z,100175.77
2023-01-01T05:33:46.766Z,100176.60
2023-01-01T05:36:19.051Z,100181.86
2023-01-01T05:38:49.752Z,100186.12
2023-01-01T05:41:21.624Z,100194.62
2023-01-01T05:43:52.937Z,100198.19
2023-01-01T05:46:25.230Z,100199.93
2023-01-01T05:48:55.675Z,100196.48
2023-01-01T05:51:27.799Z,100197.25
2023-01-01T05:53:59.139Z,100205.91
2023-01-01T05:56:29.615Z,100211.44
2023-01-01T05:58:59.623Z,100216.27
2023-01-01T06:01:31.062Z,100217.64
2023-01-01T06:04:01.604Z,100213.91
2023-01-01T06:06:33.534Z,100215.63
2023-01-01T06:09:06.884Z,100223.26
2023-01-01T06:11:37.838Z,100225.61
2023-01-01T06:14:07.903Z,100230.30
2023-01-01T06:16:38.298Z,100234.48
2023-01-01T06:19:08.852Z,100234.15
2023-01-01T06:21:38.774Z,100237.93
2023-01-01T06:24:10.031Z,100240.08
2023-01-01T06:26:40.414Z,100240.51
2023-01-01T06:29:10.515Z,100239.16
2023-01-01T06:31:41.112Z,100247.10
2023-01-01T06:34:11.610Z,100249.95
2023-01-01T06:36:42.090Z,100253.85
2023-01-01T06:39:11.942Z,100255.27
2023-01-01T06:41:42.456Z,100252.65
2023-01-01T06:44:12.994Z,100250.41
2023-01-01T06:46:43.472Z,100246.41
2023-01-01T06:49:14.586Z,100248.48
2023-01-01T06:51:45.293Z,100248.88
2023-01-01T06:54:15.615Z,100246.09
2023-01-01T06:56:46.235Z,100247.79
2023-01-01T06:59:17.215Z,100255.02
2023-01-01T07:01:47.700Z,100259.73
2023-01-01T07:04:18.793Z,100266.52
2023-01-01T07:06:49.269Z,100267.11
2023-01-01T07:09:19.526Z,100272.77
2023-01-01T07:11:49.643Z,100269.86
2023-01-01T07:14:19.524Z,100272.37
2023-01-01T07:16:49.705Z,100271.88
2023-01-01T07:19:19.685Z,100269.63
2023-01-01T07:21:54.560Z,100274.17
2023-01-01T07:24:24.816Z,100278.23
2023-01-01T07:26:55.492Z,100283.65
2023-01-01T07:29:25.754Z,100288.69
2023-01-01T07:31:55.927Z,100293.89
2023-01-01T07:34:26.412Z,100289.77
2023-01-01T07:36:57.285Z,100299.41
2023-01-01T07:39:27.837Z,100304.18
2023-01-01T07:41:58.148Z,100306.70
2023-01-01T07:44:28.683Z,100303.36
2023-01-01T07:47:04.793Z,100310.25
2023-01-01T07:49:34.726Z,100312.05
2023-01-01T07:52:05.168Z,100313.42
2023-01-01T07:54:35.560Z,100310.85
2023-01-01T07:57:06.106Z,100311.55
2023-01-01T07:59:36.857Z,100323.09
2023-01-01T08:02:07.744Z,100331.04
2023-01-01T08:04:38.252Z,100342.47
2023-01-01T08:07:08.640Z,100338.52
2023-01-01T08:09:38.689Z,100336.16
2023-01-01T08:12:09.612Z,100343.07
2023-01-01T08:14:40.151Z,100347.98
2023-01-01T08:17:10.652Z,100347.39
2023-01-01T08:19:40.883Z,100351.31
2023-01-01T08:22:11.752Z,100353.34
2023-01-01T08:24:42.195Z,100356.40
2023-01-01T08:27:14.760Z,100355.13
2023-01-01T08:29:45.396Z,100358.84
2023-01-01T08:32:16.018Z,100356.91
2023-01-01T08:34:46.119Z,100358.47
2023-01-01T08:37:16.594Z,100360.21
2023-01-01T08:39:51.007Z,100360.33
2023-01-01T08:42:21.447Z,100359.76
2023-01-01T08:44:52.010Z,100369.57
2023-01-01T08:47:24.341Z,100369.27
2023-01-01T08:49:54.424Z,100373.14
2023-01-01T08:52:24.454Z,100369.88
2023-01-01T08:54:54.961Z,100371.42
2023-01-01T08:57:25.477Z,100376.39
2023-01-01T08:59:56.032Z,100380.16
2023-01-01T09:02:26.763Z,100385.86
2023-01-01T09:04:57.625Z,100388.30
2023-01-01T09:07:27.844Z,100387.35
2023-01-01T09:09:58.118Z,100384.91
2023-01-01T09:12:28.016Z,100384.13
2023-01-01T09:14:58.390Z,100389.04
2023-01-01T09:17:28.862Z,100385.90
2023-01-01T09:19:59.137Z,100386.80
2023-01-01T09:22:29.679Z,100386.63
2023-01-01T09:25:00.362Z,100388.89
2023-01-01T09:27:30.868Z,100389.52
2023-01-01T09:30:01.281Z,100389.52
2023-01-01T09:32:33.356Z,100392.52
2023-01-01T09:35:03.675Z,100388.80
2023-01-01T09:37:34.680Z,100392.26
2023-01-01T09:40:07.088Z,100390.77
2023-01-01T09:42:43.115Z,100391.70
2023-01-01T09:45:23.711Z,100394.58
2023-01-01T09:47:57.829Z,100386.23
2023-01-01T09:50:33.244Z,100386.33
2023-01-01T09:53:08.291Z,100390.77
2023-01-01T09:55:45.018Z,100392.13
2023-01-01T09:58:15.508Z,100395.86
2023-01-01T10:00:52.369Z,100395.17
2023-01-01T10:03:33.476Z,100395.88
2023-01-01T10:06:14.100Z,100389.77
2023-01-01T10:08:57.558Z,100386.14
2023-01-01T10:11:32.250Z,100387.59
2023-01-01T10:14:15.469Z,100383.95
2023-01-01T10:16:53.055Z,100387.26
2023-01-01T10:19:28.179Z,100390.94
2023-01-01T10:22:03.948Z,100384.67
2023-01-01T10:24:42.521Z,100381.02
2023-01-01T10:27:26.896Z,100381.23
2023-01-01T10:30:03.353Z,100376.57
2023-01-01T10:32:36.803Z,100366.63
2023-01-01T10:35:14.884Z,100362.80
2023-01-01T10:37:45.769Z,100360.77
2023-01-01T10:40:21.119Z,100359.73
2023-01-01T10:42:53.638Z,100355.91
2023-01-01T10:45:32.032Z,100349.41
2023-01-01T10:48:17.764Z,100352.83
2023-01-01T10:50:52.616Z,100351.27
2023-01-01T10:53:26.901Z,100347.69
2023-01-01T10:56:04.011Z,100343.27
2023-01-01T10:58:38.891Z,100347.81
2023-01-01T11:01:11.656Z,100342.14
2023-01-01T11:03:56.058Z,100343.80
2023-01-01T11:06:28.127Z,100338.12
2023-01-01T11:09:03.288Z,100338.16
2023-01-01T11:11:42.052Z,100344.56
2023-01-01T11:14:22.308Z,100345.52
2023-01-01T11:16:53.934Z,100339.98
2023-01-01T11:19:28.336Z,100340.09
2023-01-01T11:21:59.463Z,100338.47
2023-01-01T11:24:31.700Z,100335.96
2023-01-01T11:27:19.402Z,100336.09
2023-01-01T11:29:52.895Z,100332.50
2023-01-01T11:32:29.200Z,100329.39
2023-01-01T11:35:02.427Z,100337.67
2023-01-01T11:37:35.693Z,100336.86
2023-01-01T11:40:17.436Z,100339.05
2023-01-01T11:42:58.000Z,100338.09
2023-01-01T11:45:37.617Z,100338.83
2023-01-01T11:48:15.982Z,100341.47
2023-01-01T11:50:54.125Z,100343.23
2023-01-01T11:53:32.081Z,100340.20
2023-01-01T11:56:08.339Z,100339.25
2023-01-01T11:58:48.764Z,100336.33
2023-01-01T12:01:27.779Z,100337.23
2023-01-01T12:04:03.965Z,100336.77
2023-01-01T12:06:42.213Z,100338.42
2023-01-01T12:09:18.950Z,100342.98
2023-01-01T12:11:52.523Z,100354.77
2023-01-01T12:14:32.730Z,100368.52
2023-01-01T12:17:09.825Z,100374.63
2023-01-01T12:19:49.250Z,100364.45
2023-01-01T12:22:20.263Z,100372.34
2023-01-01T12:24:52.253Z,100367.55
2023-01-01T12:27:38.800Z,100361.47
2023-01-01T12:30:22.936Z,100360.35
2023-01-01T12:33:15.681Z,100362.80
2023-01-01T12:36:00.952Z,100361.15
2023-01-01T12:38:54.878Z,100357.23
2023-01-01T12:41:32.427Z,100361.91
2023-01-01T12:44:17.123Z,100367.01
2023-01-01T12:46:53.993Z,100373.80
2023-01-01T12:49:52.396Z,100370.91
2023-01-01T12:52:36.294Z,100371.46
2023-01-01T12:55:40.934Z,100371.46
2023-01-01T12:58:16.597Z,100372.75
2023-01-01T13:00:57.495Z,100372.63
2023-01-01T13:03:34.226Z,100374.95
2023-01-01T13:06:06.927Z,100378.08
2023-01-01T13:08:40.296Z,100380.03
2023-01-01T13:11:13.024Z,100385.06
2023-01-01T13:13:43.987Z,100385.30
2023-01-01T13:16:32.274Z,100389.92
2023-01-01T13:19:03.050Z,100390.17
2023-01-01T13:21:37.136Z,100385.73
2023-01-01T13:24:21.578Z,100385.15
2023-01-01T13:26:52.586Z,100376.52
2023-01-01T13:29:35.864Z,100379.14
2023-01-01T13:32:10.463Z,100380.44
2023-01-01T13:35:04.074Z,100378.48
2023-01-01T13:37:44.767Z,100382.45
2023-01-01T13:40:53.357Z,100385.39
2023-01-01T13:43:30.353Z,100384.00
2023-01-01T13:46:14.322Z,100389.00
2023-01-01T13:49:04.742Z,100396.13
2023-01-01T13:52:09.930Z,100409.33
2023-01-01T13:55:28.983Z,100415.29
2023-01-01T13:58:24.195Z,100423.40
2023-01-01T14:01:21.331Z,100424.15
2023-01-01T14:03:56.483Z,100426.94
2023-01-01T14:06:33.222Z,100437.81
2023-01-01T14:09:06.613Z,100448.95
2023-01-01T14:11:36.934Z,100453.90
2023-01-01T14:14:23.670Z,100457.81
2023-01-01T14:16:56.607Z,100462.63
2023-01-01T14:19:27.584Z,100464.02
2023-01-01T14:21:58.988Z,100467.52
2023-01-01T14:24:29.963Z,100472.28
2023-01-01T14:27:00.445Z,100479.11
2023-01-01T14:29:32.312Z,100488.77
2023-01-01T14:32:14.306Z,100496.89
2023-01-01T14:34:45.719Z,100496.02
2023-01-01T14:37:24.720Z,100493.45
2023-01-01T14:40:16.106Z,100495.95
2023-01-01T14:42:48.777Z,100496.73
2023-01-01T14:45:20.377Z,100500.13
2023-01-01T14:47:53.334Z,100502.32
2023-01-01T14:50:30.657Z,100508.77
2023-01-01T14:53:05.641Z,100509.46
2023-01-01T14:55:42.389Z,100511.27
2023-01-01T14:58:17.501Z,100516.13
2023-01-01T15:00:48.320Z,100518.92
2023-01-01T15:03:20.134Z,100510.02
2023-01-01T15:06:00.714Z,100502.09
2023-01-01T15:08:31.319Z,100499.31
2023-01-01T15:11:04.774Z,100495.28
2023-01-01T15:13:35.082Z,100490.85
2023-01-01T15:16:19.328Z,100483.17
2023-01-01T15:18:51.929Z,100487.00
2023-01-01T15:21:38.066Z,100491.23
2023-01-01T15:24:13.816Z,100488.94
2023-01-01T15:26:49.418Z,100482.88
2023-01-01T15:29:27.657Z,100479.38
2023-01-01T15:32:01.339Z,100481.77
2023-01-01T15:34:34.555Z,100493.52
2023-01-01T15:37:13.135Z,100497.11
2023-01-01T15:39:52.452Z,100500.68
2023-01-01T15:42:34.162Z,100507.33
2023-01-01T15:45:19.704Z,100519.46
2023-01-01T15:47:51.138Z,100528.73
2023-01-01T15:50:26.976Z,100531.10
2023-01-01T15:52:59.397Z,100537.96
2023-01-01T15:55:34.003Z,100541.90
2023-01-01T15:58:05.566Z,100547.22
2023-01-01T16:00:41.364Z,100551.67
2023-01-01T16:03:21.829Z,100561.73
2023-01-01T16:05:54.870Z,100570.02
2023-01-01T16:08:25.161Z,100566.50
2023-01-01T16:10:55.644Z,100572.27
2023-01-01T16:13:25.982Z,100575.30
2023-01-01T16:15:59.968Z,100570.47
2023-01-01T16:18:32.415Z,100563.72
2023-01-01T16:21:03.545Z,100563.28
2023-01-01T16:23:33.819Z,100562.36
2023-01-01T16:26:03.969Z,100567.39
2023-01-01T16:28:33.889Z,100568.94
2023-01-01T16:31:06.511Z,100578.36
2023-01-01T16:33:37.078Z,100588.90
2023-01-01T16:36:12.445Z,100599.20
2023-01-01T16:38:43.184Z,100605.79
2023-01-01T16:41:15.931Z,100611.45
2023-01-01T16:43:47.765Z,100615.21
2023-01-01T16:46:18.450Z,100618.29
2023-01-01T16:48:48.726Z,100621.53
2023-01-01T16:51:21.906Z,100620.04
2023-01-01T16:53:52.283Z,100612.45
2023-01-01T16:56:22.936Z,100610.81
2023-01-01T16:59:00.268Z,100616.40
2023-01-01T17:01:34.482Z,100621.44
2023-01-01T17:04:05.315Z,100624.83
2023-01-01T17:06:37.690Z,100625.48
2023-01-01T17:09:08.241Z,100621.37
2023-01-01T17:11:39.102Z,100620.20
2023-01-01T17:14:10.696Z,100615.42
2023-01-01T17:16:40.999Z,100614.86
2023-01-01T17:19:15.999Z,100609.30
2023-01-01T17:21:48.507Z,100605.61
2023-01-01T17:24:21.630Z,100609.00
2023-01-01T17:26:55.176Z,100606.80
2023-01-01T17:29:26.339Z,100604.38
2023-01-01T17:31:56.743Z,100606.13
2023-01-01T17:34:27.873Z,100610.84
2023-01-01T17:36:59.209Z,100615.52
2023-01-01T17:39:31.397Z,100625.20
2023-01-01T17:42:02.129Z,100626.13
2023-01-01T17:44:32.703Z,100629.89
2023-01-01T17:47:04.451Z,100632.13
2023-01-01T17:49:35.098Z,100634.14
2023-01-01T17:52:06.346Z,100642.85
2023-01-01T17:54:38.043Z,100640.42
2023-01-01T17:57:09.067Z,100639.52
2023-01-01T17:59:40.309Z,100636.05
2023-01-01T18:02:13.614Z,100634.29
2023-01-01T18:04:45.182Z,100637.60
2023-01-01T18:07:16.082Z,100649.20
2023-01-01T18:09:47.552Z,100655.48
2023-01-01T18:12:17.808Z,100657.20
2023-01-01T18:14:48.123Z,100661.02
2023-01-01T18:17:23.125Z,100669.83
2023-01-01T18:19:54.176Z,100680.45
2023-01-01T18:22:26.625Z,100682.52
2023-01-01T18:24:57.871Z,100680.67
2023-01-01T18:27:30.560Z,100683.09
2023-01-01T18:30:01.729Z,100688.90
2023-01-01T18:32:32.756Z,100689.55
2023-01-01T18:35:04.069Z,100695.18
2023-01-01T18:37:37.314Z,100701.76
2023-01-01T18:40:13.489Z,100703.79
2023-01-01T18:42:53.667Z,100707.05
2023-01-01T18:45:27.905Z,100706.83
2023-01-01T18:48:03.851Z,100704.64
2023-01-01T18:50:36.772Z,100703.09
2023-01-01T18:53:18.652Z,100699.47
2023-01-01T18:55:54.971Z,100698.13
2023-01-01T18:58:26.147Z,100701.67
2023-01-01T19:00:56.544Z,100711.11
2023-01-01T19:03:28.703Z,100713.45
2023-01-01T19:06:01.609Z,100719.63
2023-01-01T19:08:32.771Z,100723.88
2023-01-01T19:11:07.340Z,100727.47
2023-01-01T19:13:40.980Z,100728.92
2023-01-01T19:16:26.988Z,100732.90
2023-01-01T19:19:13.066Z,100740.20
2023-01-01T19:21:51.062Z,100750.80
2023-01-01T19:24:25.757Z,100754.87
2023-01-01T19:27:00.509Z,100757.11
2023-01-01T19:29:32.299Z,100763.52
2023-01-01T19:32:05.344Z,100770.96
2023-01-01T19:34:38.732Z,100772.61
2023-01-01T19:37:11.380Z,100773.20
2023-01-01T19:39:45.428Z,100773.85
2023-01-01T19:42:20.980Z,100779.65
2023-01-01T19:44:51.808Z,100784.80
2023-01-01T19:47:23.198Z,100787.69
2023-01-01T19:49:55.920Z,100791.76
2023-01-01T19:52:27.481Z,100796.40
2023-01-01T19:55:05.565Z,100801.15
2023-01-01T19:57:37.799Z,100801.73
2023-01-01T20:00:11.743Z,100798.11
2023-01-01T20:02:48.565Z,100800.66
2023-01-01T20:05:22.731Z,100804.57
2023-01-01T20:07:57.717Z,100804.45
2023-01-01T20:10:34.236Z,100805.04
2023-01-01T20:13:07.585Z,100802.67
2023-01-01T20:15:46.844Z,100805.20
2023-01-01T20:18:28.476Z,100805.15
2023-01-01T20:21:25.922Z,100805.15
2023-01-01T20:24:01.809Z,100808.81
2023-01-01T20:26:38.445Z,100807.29
2023-01-01T20:29:23.443Z,100801.63
2023-01-01T20:32:01.609Z,100806.70
2023-01-01T20:34:36.556Z,100802.13
2023-01-01T20:37:26.613Z,100800.85
2023-01-01T20:40:02.228Z,100796.83
2023-01-01T20:42:37.480Z,100798.66
2023-01-01T20:45:13.153Z,100804.01
2023-01-01T20:47:51.407Z,100806.58
2023-01-01T20:50:24.548Z,100806.63
2023-01-01T20:52:58.910Z,100805.36
2023-01-01T20:55:35.069Z,100808.04
2023-01-01T20:58:08.513Z,100805.08
2023-01-01T21:00:41.584Z,100800.66
2023-01-01T21:03:19.163Z,100806.86
2023-01-01T21:05:52.873Z,100813.23
2023-01-01T21:08:25.668Z,100811.48
2023-01-01T21:11:03.516Z,100814.42
2023-01-01T21:13:36.817Z,100819.40
2023-01-01T21:16:19.318Z,100819.35
2023-01-01T21:18:51.677Z,100821.15
2023-01-01T21:21:25.354Z,100824.54
2023-01-01T21:24:02.623Z,100829.40
2023-01-01T21:26:36.971Z,100833.73
2023-01-01T21:29:12.642Z,100831.74
2023-01-01T21:31:44.339Z,100830.98
2023-01-01T21:34:37.208Z,100833.73
2023-01-01T21:37:15.572Z,100831.61
2023-01-01T21:39:46.021Z,100834.59
2023-01-01T21:42:24.687Z,100839.55
2023-01-01T21:44:56.412Z,100838.75
2023-01-01T21:47:27.597Z,100844.11
2023-01-01T21:49:57.762Z,100848.05
2023-01-01T21:52:27.829Z,100846.81
2023-01-01T21:54:58.088Z,100847.84
2023-01-01T21:57:30.919Z,100848.13
2023-01-01T22:00:01.863Z,100849.81
2023-01-01T22:02:47.722Z,100851.40
2023-01-01T22:05:31.189Z,100848.81
2023-01-01T22:08:24.666Z,100848.85
2023-01-01T22:10:56.343Z,100850.52
2023-01-01T22:13:27.692Z,100852.65
2023-01-01T22:15:57.678Z,100850.88
2023-01-01T22:18:30.528Z,100854.72
2023-01-01T22:21:02.322Z,100856.23
2023-01-01T22:23:40.682Z,100854.55
2023-01-01T22:26:22.249Z,100852.59
2023-01-01T22:28:58.556Z,100852.05
2023-01-01T22:31:31.927Z,100849.84
2023-01-01T22:34:04.950Z,100850.23
2023-01-01T22:36:37.640Z,100849.02
2023-01-01T22:39:25.356Z,100848.98
2023-01-01T22:41:57.035Z,100845.52
2023-01-01T22:44:28.341Z,100844.34
2023-01-01T22:47:01.136Z,100846.31
2023-01-01T22:49:38.693Z,100846.02
2023-01-01T22:52:10.868Z,100848.86
2023-01-01T22:54:41.335Z,100853.05
2023-01-01T22:57:11.763Z,100854.81
2023-01-01T22:59:43.190Z,100855.57
2023-01-01T23:02:13.636Z,100858.16
2023-01-01T23:04:43.866Z,100862.56
2023-01-01T23:07:14.532Z,100863.54
2023-01-01T23:09:44.743Z,100861.52
2023-01-01T23:12:15.265Z,100863.77
2023-01-01T23:15:04.168Z,100860.29
2023-01-01T23:17:34.695Z,100855.27
2023-01-01T23:20:06.718Z,100851.25
2023-01-01T23:22:40.094Z,100851.66
2023-01-01T23:25:14.020Z,100852.14
2023-01-01T23:27:45.089Z,100857.36
2023-01-01T23:30:15.980Z,100857.02
2023-01-01T23:32:46.563Z,100859.14
2023-01-01T23:35:16.703Z,100858.38
2023-01-01T23:37:47.139Z,100849.83
2023-01-01T23:40:17.852Z,100847.91
2023-01-01T23:42:48.103Z,100851.83
2023-01-01T23:45:18.839Z,100857.67
2023-01-01T23:47:49.458Z,100858.55
2023-01-01T23:50:20.326Z,100856.55
2023-01-01T23:52:50.925Z,100856.58
2023-01-01T23:55:21.164Z,100855.77
2023-01-01T23:57:51.758Z,100860.48
